createdAt,value
2022-08-08T00:02:04.326Z,59.71
2022-08-08T00:08:20.582Z,60.32
2022-08-08T00:14:48.934Z,60.02
2022-08-08T00:21:05.345Z,60.3
2022-08-08T00:27:32.796Z,60.9
2022-08-08T00:34:17.645Z,61.43
2022-08-08T00:41:08.473Z,62.5
2022-08-08T00:46:32.131Z,62.5
2022-08-08T00:52:52.551Z,63.12
2022-08-08T00:59:12.642Z,62.75
2022-08-08T01:05:42.656Z,63.07
2022-08-08T01:11:55.612Z,63.68
2022-08-08T01:18:25.179Z,63.8
2022-08-08T01:24:38.655Z,64.3
2022-08-08T01:31:01.624Z,65.21
2022-08-08T01:37:21.755Z,66.32
2022-08-08T01:43:44.617Z,65.72
2022-08-08T01:50:04.695Z,66.37
2022-08-08T01:56:31.383Z,66.96
2022-08-08T02:02:47.967Z,67.34
2022-08-08T02:09:15.863Z,67.26
2022-08-08T02:15:30.585Z,67.26
2022-08-08T02:21:53.577Z,67.51
2022-08-08T02:28:13.620Z,68.1
2022-08-08T02:34:36.639Z,68.18
2022-08-08T02:40:56.630Z,68.77
2022-08-08T02:47:19.671Z,69.1
2022-08-08T02:53:39.595Z,69.13
2022-08-08T03:00:26.375Z,69.08
2022-08-08T03:06:23.964Z,69.11
2022-08-08T03:13:01.293Z,69.44
2022-08-08T03:19:05.569Z,70.12
2022-08-08T03:25:34.285Z,70.14
2022-08-08T03:42:28.900Z,70.84
2022-08-08T03:48:36.585Z,71.52
2022-08-08T03:55:02.831Z,71.72
2022-08-08T04:01:20.731Z,71.45
2022-08-08T04:07:38.594Z,70.95
2022-08-08T04:14:02.965Z,71.07
2022-08-08T04:20:21.600Z,71.74
2022-08-08T04:26:56.691Z,71.83
2022-08-08T04:33:04.649Z,71.48
2022-08-08T04:39:48.365Z,70.96
2022-08-08T04:45:47.562Z,71.28
2022-08-08T04:52:10.592Z,71.81
2022-08-08T04:58:30.619Z,72.15
2022-08-08T05:04:53.617Z,71.96
2022-08-08T05:11:16.194Z,72.09
2022-08-08T05:17:37.485Z,72
2022-08-08T05:23:56.692Z,72.42
2022-08-08T05:30:27.863Z,71.83
2022-08-08T05:36:39.557Z,70.81
2022-08-08T05:43:02.614Z,69.91
2022-08-08T05:49:22.574Z,68.64
2022-08-08T05:56:08.365Z,68.4
2022-08-08T06:02:05.553Z,68.07
2022-08-08T06:08:33.820Z,67.46
2022-08-08T06:14:49.036Z,67.15
2022-08-08T06:21:28.020Z,67.18
2022-08-08T06:27:31.640Z,66.17
2022-08-08T06:34:25.198Z,65.8
2022-08-08T06:40:16.363Z,66.47
2022-08-08T06:46:37.589Z,65.34
2022-08-08T06:52:57.605Z,64.37
2022-08-08T06:59:20.687Z,63.86
2022-08-08T07:05:40.586Z,63.51
2022-08-08T07:12:03.595Z,62.88
2022-08-08T07:18:35.275Z,61.04
2022-08-08T07:24:46.687Z,60.64
2022-08-08T07:31:06.590Z,60.04
2022-08-08T07:37:42.682Z,58.88
2022-08-08T07:43:51.124Z,57.72
2022-08-08T07:50:12.582Z,57.44
2022-08-08T07:56:35.309Z,56.86
2022-08-08T08:02:55.612Z,56.04
2022-08-08T08:09:15.585Z,53.92
2022-08-08T08:15:38.594Z,54.69
2022-08-08T08:22:00.890Z,52.92
2022-08-08T08:28:24.040Z,52.58
2022-08-08T08:34:43.334Z,50.92
2022-08-08T08:41:06.217Z,50.45
2022-08-08T08:57:30.253Z,46.96
2022-08-08T09:03:50.573Z,46.86
2022-08-08T09:10:17.192Z,46.13
2022-08-08T09:16:32.749Z,45.13
2022-08-08T09:22:58.620Z,45.15
2022-08-08T09:29:22.363Z,44.24
2022-08-08T09:35:38.573Z,43.25
2022-08-08T09:42:14.866Z,41.77
2022-08-08T09:48:26.052Z,41.44
2022-08-08T09:54:41.932Z,39.74
2022-08-08T10:01:14.174Z,38.98
2022-08-08T10:07:25.841Z,37.49
2022-08-08T10:13:47.943Z,37.15
2022-08-08T10:20:07.593Z,35.76
2022-08-08T10:26:51.842Z,34.28
2022-08-08T10:32:50.894Z,35.6
2022-08-08T10:39:13.948Z,34.57
2022-08-08T10:45:38.972Z,33.91
2022-08-08T10:51:56.579Z,33.62
2022-08-08T10:58:16.565Z,34
2022-08-08T11:04:39.590Z,33.53
2022-08-08T11:10:59.565Z,32.4
2022-08-08T11:17:58.016Z,31.29
2022-08-08T11:23:42.583Z,30.74
2022-08-08T11:30:20.704Z,30.16
2022-08-08T11:36:27.635Z,29.85
2022-08-08T11:42:48.552Z,29.72
2022-08-08T11:49:09.332Z,29.76
2022-08-08T11:55:31.564Z,29.98
2022-08-08T12:01:51.561Z,27.42
2022-08-08T12:08:14.576Z,27.45
2022-08-08T12:14:34.560Z,28.24
2022-08-08T12:20:58.756Z,27.44
2022-08-08T12:27:18.093Z,27.25
2022-08-08T12:34:01.704Z,26.29
2022-08-08T12:40:02.505Z,25.15
2022-08-08T12:46:24.968Z,24.84
2022-08-08T12:52:43.588Z,25.33
2022-08-08T12:59:06.559Z,24.94
2022-08-08T13:06:02.333Z,23.5
2022-08-08T13:12:04.249Z,23
2022-08-08T13:18:12.054Z,23.4
2022-08-08T13:24:39.570Z,23.14
2022-08-08T13:30:53.092Z,24.09
2022-08-08T13:37:19.951Z,23.47
2022-08-08T13:43:35.595Z,22.71
2022-08-08T13:50:34.019Z,23.67
2022-08-08T13:56:18.577Z,24.15
2022-08-08T14:02:41.604Z,23.75
2022-08-08T14:09:18.573Z,23.58
2022-08-08T14:15:24.583Z,25.08
2022-08-08T14:32:29.779Z,25.41
2022-08-08T14:38:52.330Z,26.2
2022-08-08T14:45:09.933Z,27.26
2022-08-08T14:51:47.393Z,27.85
2022-08-08T14:58:03.457Z,27.24
2022-08-08T15:04:15.579Z,27.25
2022-08-08T15:10:35.557Z,27.21
2022-08-08T15:16:58.590Z,27.31
2022-08-08T15:23:18.565Z,27
2022-08-08T15:29:41.567Z,26.91
2022-08-08T15:36:01.611Z,27.65
2022-08-08T15:42:32.111Z,27.89
2022-08-08T15:48:44.588Z,28.06
2022-08-08T15:55:07.573Z,27.43
2022-08-08T16:01:40.325Z,27.12
2022-08-08T16:07:52.158Z,27.46
2022-08-08T16:14:13.301Z,26.5
2022-08-08T16:20:33.581Z,26.64
2022-08-08T16:26:53.567Z,25.85
2022-08-08T16:33:16.572Z,26.12
2022-08-08T16:40:00.195Z,26
2022-08-08T16:46:35.831Z,26.58
2022-08-08T16:54:59.118Z,27.31
2022-08-08T16:58:42.584Z,26.46
2022-08-08T17:05:03.169Z,27.17
2022-08-08T17:11:28.160Z,27.58
2022-08-08T17:18:02.008Z,27.38
2022-08-08T17:24:10.474Z,28.13
2022-08-08T17:30:29.307Z,28.34
2022-08-08T17:37:01.276Z,28.05
2022-08-08T17:43:12.471Z,28.69
2022-08-08T17:49:38.017Z,30.05
2022-08-08T17:56:04.310Z,30.84
2022-08-08T18:02:18.978Z,31.6
2022-08-08T18:08:42.103Z,32.75
2022-08-08T18:15:00.601Z,33.88
2022-08-08T18:21:25.302Z,34.12
2022-08-08T18:27:43.599Z,34.71
2022-08-08T18:34:12.590Z,35.22
2022-08-08T18:40:35.046Z,35.51
2022-08-08T18:46:53.645Z,36.13
2022-08-08T18:53:09.591Z,36.89
2022-08-08T18:59:34.437Z,37.5
2022-08-08T19:05:52.629Z,37.92
2022-08-08T19:12:13.005Z,38.81
2022-08-08T19:18:47.815Z,39.31
2022-08-08T19:25:18.741Z,40.1
2022-08-08T19:31:18.587Z,40.53
2022-08-08T19:37:42.522Z,40.76
2022-08-08T19:44:02.660Z,41.23
2022-08-08T20:08:30.328Z,42.96
2022-08-08T20:14:33.236Z,43.28
2022-08-08T20:20:43.560Z,44.59
2022-08-08T20:27:03.574Z,44.96
2022-08-08T20:39:51.084Z,44.95
2022-08-08T20:46:05.565Z,45.24
2022-08-08T20:52:25.576Z,45.51
2022-08-08T20:58:48.600Z,46.08
2022-08-08T21:05:08.564Z,46.75
2022-08-08T21:11:51.019Z,47.76
2022-08-08T21:17:56.088Z,48.74
2022-08-08T21:24:23.574Z,48.67
2022-08-08T21:30:34.808Z,48.82
2022-08-08T21:36:58.246Z,49.56
2022-08-08T21:43:17.599Z,50.42
2022-08-08T21:49:40.622Z,51.26
2022-08-08T21:56:20.237Z,52.07
2022-08-08T22:20:23.547Z,53.35
2022-08-08T22:27:02.095Z,54.35
2022-08-08T22:33:02.638Z,55.27
2022-08-08T22:39:22.656Z,55.6
2022-08-08T22:45:46.421Z,55.77
2022-08-08T22:52:05.657Z,56.64
2022-08-08T22:58:29.088Z,56.49
2022-08-08T23:04:48.639Z,56.7
2022-08-08T23:11:12.934Z,57.13
2022-08-08T23:17:31.572Z,58.4
2022-08-08T23:23:56.096Z,58.77
2022-08-08T23:30:14.576Z,58.95
2022-08-08T23:36:37.663Z,59.1
2022-08-08T23:42:57.640Z,59.68
2022-08-08T23:49:20.719Z,59.93
2022-08-08T23:55:42.034Z,60.47
